createdAt,value
2022-09-03T00:00:43.336Z,996.48
2022-09-03T00:01:43.341Z,996.46
2022-09-03T00:02:43.357Z,996.44
2022-09-03T00:03:43.309Z,996.45
2022-09-03T00:04:43.359Z,996.42
2022-09-03T00:05:43.286Z,996.43
2022-09-03T00:06:43.279Z,996.50
2022-09-03T00:07:43.468Z,996.45
2022-09-03T00:08:43.380Z,996.48
2022-09-03T00:09:43.481Z,996.38
2022-09-03T00:10:43.496Z,996.39
2022-09-03T00:11:43.496Z,996.49
2022-09-03T00:12:43.406Z,996.52
2022-09-03T00:13:43.358Z,996.45
2022-09-03T00:14:43.514Z,996.44
2022-09-03T00:15:43.398Z,996.46
2022-09-03T00:16:43.426Z,996.53
2022-09-03T00:17:43.374Z,996.53
2022-09-03T00:18:43.190Z,996.50
2022-09-03T00:19:43.199Z,996.50
2022-09-03T00:20:43.182Z,996.52
2022-09-03T00:21:43.158Z,996.50
2022-09-03T00:22:43.154Z,996.58
2022-09-03T00:23:43.147Z,996.56
2022-09-03T00:24:43.336Z,996.47
2022-09-03T00:25:43.131Z,996.47
2022-09-03T00:26:43.135Z,996.43
2022-09-03T00:27:43.121Z,996.50
2022-09-03T00:28:43.103Z,996.48
2022-09-03T00:29:43.125Z,996.46
2022-09-03T00:30:43.101Z,996.48
2022-09-03T00:31:43.094Z,996.52
2022-09-03T00:32:43.063Z,996.44
2022-09-03T00:33:44.068Z,996.36
2022-09-03T00:34:43.083Z,996.44
2022-09-03T00:35:43.057Z,996.47
2022-09-03T00:36:43.045Z,996.50
2022-09-03T00:37:43.038Z,996.49
2022-09-03T00:38:43.024Z,996.49
2022-09-03T00:39:43.131Z,996.52
2022-09-03T00:40:43.009Z,996.59
2022-09-03T00:41:43.002Z,996.57
2022-09-03T00:42:42.987Z,996.61
2022-09-03T00:43:42.987Z,996.64
2022-09-03T00:44:43.010Z,996.60
2022-09-03T00:45:42.964Z,996.69
2022-09-03T00:46:43.017Z,996.68
2022-09-03T00:47:42.948Z,996.55
2022-09-03T00:48:42.942Z,996.60
2022-09-03T00:49:43.943Z,996.62
2022-09-03T00:50:43.932Z,996.63
2022-09-03T00:51:42.912Z,996.67
2022-09-03T00:52:42.905Z,996.63
2022-09-03T00:53:42.899Z,996.60
2022-09-03T00:54:42.919Z,996.66
2022-09-03T00:55:42.881Z,996.62
2022-09-03T00:56:42.864Z,996.62
2022-09-03T00:57:42.866Z,996.59
2022-09-03T00:58:42.853Z,996.61
2022-09-03T00:59:42.877Z,996.70
2022-09-03T01:00:42.843Z,996.68
2022-09-03T01:01:42.893Z,996.68
2022-09-03T01:02:43.000Z,996.63
2022-09-03T01:03:42.815Z,996.59
2022-09-03T01:04:42.842Z,996.65
2022-09-03T01:05:42.803Z,996.63
2022-09-03T01:06:42.790Z,996.65
2022-09-03T01:07:42.792Z,996.63
2022-09-03T01:08:43.968Z,996.66
2022-09-03T01:09:42.769Z,996.61
2022-09-03T01:10:42.792Z,996.62
2022-09-03T01:11:42.746Z,996.61
2022-09-03T01:12:42.739Z,996.62
2022-09-03T01:13:42.740Z,996.67
2022-09-03T01:14:42.762Z,996.58
2022-09-03T01:15:42.752Z,996.64
2022-09-03T01:16:42.702Z,996.69
2022-09-03T01:17:43.740Z,996.64
2022-09-03T01:18:42.685Z,996.60
2022-09-03T01:19:42.685Z,996.67
2022-09-03T01:20:42.708Z,996.69
2022-09-03T01:21:42.669Z,996.73
2022-09-03T01:22:42.670Z,996.70
2022-09-03T01:23:42.660Z,996.75
2022-09-03T01:24:42.643Z,996.74
2022-09-03T01:25:42.660Z,996.71
2022-09-03T01:26:42.625Z,996.68
2022-09-03T01:27:42.618Z,996.66
2022-09-03T01:28:42.612Z,996.67
2022-09-03T01:29:42.593Z,996.71
2022-09-03T01:30:43.657Z,996.71
2022-09-03T01:31:42.589Z,996.80
2022-09-03T01:32:42.577Z,996.74
2022-09-03T01:33:42.570Z,996.74
2022-09-03T01:34:42.571Z,996.78
2022-09-03T01:35:42.589Z,996.69
2022-09-03T01:36:42.533Z,996.69
2022-09-03T01:37:43.554Z,996.73
2022-09-03T01:38:42.537Z,996.71
2022-09-03T01:39:42.614Z,996.76
2022-09-03T01:40:42.554Z,996.72
2022-09-03T01:41:42.509Z,996.75
2022-09-03T01:42:42.503Z,996.76
2022-09-03T01:43:45.420Z,996.70
2022-09-03T01:44:43.479Z,996.67
2022-09-03T01:45:43.494Z,996.72
2022-09-03T01:46:43.495Z,996.69
2022-09-03T01:47:42.454Z,996.69
2022-09-03T01:48:42.450Z,996.71
2022-09-03T01:49:42.447Z,996.68
2022-09-03T01:50:42.457Z,996.65
2022-09-03T01:51:42.419Z,996.72
2022-09-03T01:52:42.416Z,996.71
2022-09-03T01:53:42.405Z,996.57
2022-09-03T01:54:42.401Z,996.63
2022-09-03T01:55:42.416Z,996.68
2022-09-03T01:56:42.385Z,996.71
2022-09-03T01:57:42.373Z,996.67
2022-09-03T01:58:42.364Z,996.69
2022-09-03T01:59:42.355Z,996.71
2022-09-03T02:00:42.373Z,996.70
2022-09-03T02:01:42.385Z,996.69
2022-09-03T02:02:42.392Z,996.67
2022-09-03T02:03:42.314Z,996.69
2022-09-03T02:04:42.308Z,996.69
2022-09-03T02:05:42.349Z,996.68
2022-09-03T02:06:42.299Z,996.67
2022-09-03T02:07:42.284Z,996.71
2022-09-03T02:08:42.281Z,996.65
2022-09-03T02:09:42.311Z,996.68
2022-09-03T02:10:42.300Z,996.69
2022-09-03T02:11:42.250Z,996.68
2022-09-03T02:12:42.284Z,996.69
2022-09-03T02:13:42.233Z,996.66
2022-09-03T02:14:42.230Z,996.72
2022-09-03T02:15:42.269Z,996.72
2022-09-03T02:16:42.240Z,996.68
2022-09-03T02:17:42.206Z,996.74
2022-09-03T02:18:42.200Z,996.77
2022-09-03T02:19:42.185Z,996.78
2022-09-03T02:20:42.178Z,996.75
2022-09-03T02:21:42.202Z,996.77
2022-09-03T02:22:42.170Z,996.70
2022-09-03T02:23:42.159Z,996.80
2022-09-03T02:24:42.146Z,996.80
2022-09-03T02:25:42.131Z,996.82
2022-09-03T02:26:42.154Z,996.79
2022-09-03T02:27:42.123Z,996.80
2022-09-03T02:28:42.104Z,996.78
2022-09-03T02:29:42.105Z,996.81
2022-09-03T02:30:42.168Z,996.73
2022-09-03T02:31:42.116Z,996.70
2022-09-03T02:32:42.080Z,996.81
2022-09-03T02:33:42.067Z,996.71
2022-09-03T02:34:42.057Z,996.75
2022-09-03T02:35:42.059Z,996.68
2022-09-03T02:36:42.084Z,996.77
2022-09-03T02:37:42.035Z,996.77
2022-09-03T02:38:42.030Z,996.85
2022-09-03T02:39:42.094Z,996.85
2022-09-03T02:40:42.010Z,996.87
2022-09-03T02:41:42.065Z,996.85
2022-09-03T02:42:42.005Z,996.81
2022-09-03T02:43:41.992Z,996.81
2022-09-03T02:44:41.977Z,996.82
2022-09-03T02:45:42.029Z,996.77
2022-09-03T02:46:42.003Z,996.84
2022-09-03T02:47:41.959Z,996.76
2022-09-03T02:48:41.945Z,996.76
2022-09-03T02:49:41.943Z,996.71
2022-09-03T02:50:41.935Z,996.79
2022-09-03T02:51:41.948Z,996.76
2022-09-03T02:52:41.925Z,996.79
2022-09-03T02:53:41.898Z,996.76
2022-09-03T02:54:42.895Z,996.80
2022-09-03T02:55:41.904Z,996.78
2022-09-03T02:56:41.912Z,996.79
2022-09-03T02:57:41.887Z,996.77
2022-09-03T02:58:41.876Z,996.80
2022-09-03T02:59:41.867Z,996.75
2022-09-03T03:00:41.852Z,996.79
2022-09-03T03:01:42.013Z,996.73
2022-09-03T03:02:41.948Z,996.76
2022-09-03T03:03:41.834Z,996.74
2022-09-03T03:04:41.825Z,996.75
2022-09-03T03:05:41.821Z,996.87
2022-09-03T03:06:41.837Z,996.80
2022-09-03T03:07:41.795Z,996.85
2022-09-03T03:08:41.805Z,996.87
2022-09-03T03:09:41.791Z,996.85
2022-09-03T03:10:41.773Z,996.83
2022-09-03T03:11:41.797Z,996.85
2022-09-03T03:12:41.759Z,996.76
2022-09-03T03:13:41.753Z,996.74
2022-09-03T03:14:41.737Z,996.71
2022-09-03T03:15:41.738Z,996.68
2022-09-03T03:16:41.848Z,996.71
2022-09-03T03:17:41.718Z,996.70
2022-09-03T03:18:41.709Z,996.71
2022-09-03T03:19:41.702Z,996.67
2022-09-03T03:20:41.692Z,996.64
2022-09-03T03:21:41.706Z,996.69
2022-09-03T03:22:41.673Z,996.63
2022-09-03T03:23:42.664Z,996.63
2022-09-03T03:24:41.664Z,996.63
2022-09-03T03:25:41.656Z,996.64
2022-09-03T03:26:41.666Z,996.61
2022-09-03T03:27:41.646Z,996.62
2022-09-03T03:28:41.654Z,996.62
2022-09-03T03:29:41.619Z,996.62
2022-09-03T03:30:41.652Z,996.59
2022-09-03T03:31:41.628Z,996.66
2022-09-03T03:32:41.588Z,996.60
2022-09-03T03:33:41.584Z,996.65
2022-09-03T03:34:41.575Z,996.61
2022-09-03T03:35:41.572Z,996.68
2022-09-03T03:36:41.583Z,996.64
2022-09-03T03:37:41.549Z,996.69
2022-09-03T03:38:41.547Z,996.68
2022-09-03T03:39:41.584Z,996.68
2022-09-03T03:40:41.530Z,996.72
2022-09-03T03:41:41.552Z,996.72
2022-09-03T03:42:41.528Z,996.69
2022-09-03T03:43:41.506Z,996.70
2022-09-03T03:44:41.497Z,996.61
2022-09-03T03:45:41.520Z,996.65
2022-09-03T03:46:41.509Z,996.61
2022-09-03T03:47:41.477Z,996.65
2022-09-03T03:48:41.463Z,996.62
2022-09-03T03:49:41.461Z,996.67
2022-09-03T03:50:41.453Z,996.70
2022-09-03T03:51:41.458Z,996.68
2022-09-03T03:52:41.423Z,996.63
2022-09-03T03:53:41.419Z,996.69
2022-09-03T03:54:41.417Z,996.68
2022-09-03T03:55:41.408Z,996.68
2022-09-03T03:56:41.436Z,996.69
2022-09-03T03:57:41.387Z,996.73
2022-09-03T03:58:41.377Z,996.69
2022-09-03T03:59:41.374Z,996.71
2022-09-03T04:00:41.361Z,996.75
2022-09-03T04:01:41.427Z,996.75
2022-09-03T04:02:41.380Z,996.67
2022-09-03T04:03:41.337Z,996.75
2022-09-03T04:04:41.331Z,996.66
2022-09-03T04:05:46.226Z,996.71
2022-09-03T04:06:43.353Z,996.69
2022-09-03T04:07:41.307Z,996.67
2022-09-03T04:08:41.291Z,996.65
2022-09-03T04:09:41.315Z,996.72
2022-09-03T04:10:41.282Z,996.68
2022-09-03T04:11:41.300Z,996.66
2022-09-03T04:12:41.260Z,996.66
2022-09-03T04:13:41.254Z,996.63
2022-09-03T04:14:41.243Z,996.61
2022-09-03T04:15:41.232Z,996.51
2022-09-03T04:16:41.341Z,996.55
2022-09-03T04:17:41.217Z,996.50
2022-09-03T04:18:41.207Z,996.50
2022-09-03T04:19:41.203Z,996.60
2022-09-03T04:20:41.188Z,996.51
2022-09-03T04:21:41.210Z,996.54
2022-09-03T04:22:41.183Z,996.62
2022-09-03T04:23:41.170Z,996.65
2022-09-03T04:24:41.165Z,996.59
2022-09-03T04:25:41.153Z,996.60
2022-09-03T04:26:41.173Z,996.56
2022-09-03T04:27:41.141Z,996.56
2022-09-03T04:28:41.137Z,996.56
2022-09-03T04:29:41.135Z,996.53
2022-09-03T04:30:41.231Z,996.45
2022-09-03T04:31:41.139Z,996.46
2022-09-03T04:32:41.112Z,996.44
2022-09-03T04:33:41.096Z,996.50
2022-09-03T04:34:41.080Z,996.45
2022-09-03T04:35:41.089Z,996.53
2022-09-03T04:36:41.094Z,996.60
2022-09-03T04:37:41.064Z,996.65
2022-09-03T04:38:41.047Z,996.65
2022-09-03T04:39:41.125Z,996.63
2022-09-03T04:40:41.038Z,996.66
2022-09-03T04:41:41.052Z,996.62
2022-09-03T04:42:41.039Z,996.61
2022-09-03T04:43:41.003Z,996.67
2022-09-03T04:44:40.997Z,996.72
2022-09-03T04:45:41.033Z,996.64
2022-09-03T04:46:41.021Z,996.56
2022-09-03T04:47:40.978Z,996.60
2022-09-03T04:48:40.972Z,996.56
2022-09-03T04:49:40.955Z,996.56
2022-09-03T04:50:40.946Z,996.57
2022-09-03T04:51:40.934Z,996.57
2022-09-03T04:52:40.971Z,996.54
2022-09-03T04:53:40.924Z,996.55
2022-09-03T04:54:40.908Z,996.54
2022-09-03T04:55:40.906Z,996.49
2022-09-03T04:56:40.928Z,996.53
2022-09-03T04:57:40.890Z,996.51
2022-09-03T04:58:40.878Z,996.55
2022-09-03T04:59:40.876Z,996.52
2022-09-03T05:00:40.900Z,996.56
2022-09-03T05:01:40.889Z,996.55
2022-09-03T05:02:40.878Z,996.57
2022-09-03T05:03:40.854Z,996.54
2022-09-03T05:04:40.841Z,996.51
2022-09-03T05:05:40.822Z,996.59
2022-09-03T05:06:40.853Z,996.54
2022-09-03T05:07:40.810Z,996.51
2022-09-03T05:08:40.797Z,996.56
2022-09-03T05:09:40.794Z,996.59
2022-09-03T05:10:40.785Z,996.54
2022-09-03T05:11:40.807Z,996.49
2022-09-03T05:12:40.767Z,996.50
2022-09-03T05:13:40.782Z,996.63
2022-09-03T05:14:40.758Z,996.55
2022-09-03T05:15:40.745Z,996.65
2022-09-03T05:16:40.835Z,996.62
2022-09-03T05:17:40.730Z,996.62
2022-09-03T05:18:40.742Z,996.62
2022-09-03T05:19:40.703Z,996.58
2022-09-03T05:20:40.734Z,996.62
2022-09-03T05:21:40.718Z,996.50
2022-09-03T05:22:40.679Z,996.50
2022-09-03T05:23:40.675Z,996.50
2022-09-03T05:24:40.672Z,996.54
2022-09-03T05:25:40.658Z,996.53
2022-09-03T05:26:40.675Z,996.54
2022-09-03T05:27:40.648Z,996.55
2022-09-03T05:28:40.634Z,996.54
2022-09-03T05:29:40.628Z,996.48
2022-09-03T05:30:40.617Z,996.54
2022-09-03T05:31:40.680Z,996.49
2022-09-03T05:32:40.612Z,996.56
2022-09-03T05:33:40.592Z,996.57
2022-09-03T05:34:40.582Z,996.52
2022-09-03T05:35:40.575Z,996.47
2022-09-03T05:36:40.596Z,996.41
2022-09-03T05:37:40.577Z,996.47
2022-09-03T05:38:40.548Z,996.50
2022-09-03T05:39:40.586Z,996.51
2022-09-03T05:40:40.537Z,996.54
2022-09-03T05:41:40.552Z,996.53
2022-09-03T05:42:40.517Z,996.57
2022-09-03T05:43:40.509Z,996.64
2022-09-03T05:44:40.509Z,996.47
2022-09-03T05:45:40.518Z,996.55
2022-09-03T05:46:40.525Z,996.58
2022-09-03T05:47:40.487Z,996.49
2022-09-03T05:48:40.475Z,996.50
2022-09-03T05:49:40.463Z,996.49
2022-09-03T05:50:40.456Z,996.50
2022-09-03T05:51:40.476Z,996.50
2022-09-03T05:52:40.442Z,996.50
2022-09-03T05:53:40.423Z,996.47
2022-09-03T05:54:40.434Z,996.56
2022-09-03T05:55:40.414Z,996.44
2022-09-03T05:56:40.440Z,996.45
2022-09-03T05:57:40.419Z,996.57
2022-09-03T05:58:40.384Z,996.48
2022-09-03T05:59:40.375Z,996.47
2022-09-03T06:00:40.369Z,996.53
2022-09-03T06:01:40.424Z,996.54
2022-09-03T06:02:40.521Z,996.51
2022-09-03T06:03:40.439Z,996.49
2022-09-03T06:04:40.330Z,996.50
2022-09-03T06:05:40.317Z,996.56
2022-09-03T06:06:40.346Z,996.48
2022-09-03T06:07:40.343Z,996.59
2022-09-03T06:08:40.354Z,996.52
2022-09-03T06:09:40.298Z,996.47
2022-09-03T06:10:41.102Z,996.48
2022-09-03T06:11:41.308Z,996.51
2022-09-03T06:12:40.261Z,996.48
2022-09-03T06:13:40.254Z,996.47
2022-09-03T06:14:40.247Z,996.39
2022-09-03T06:15:40.269Z,996.43
2022-09-03T06:16:40.341Z,996.40
2022-09-03T06:17:40.228Z,996.34
2022-09-03T06:18:40.250Z,996.36
2022-09-03T06:19:40.204Z,996.39
2022-09-03T06:20:40.201Z,996.38
2022-09-03T06:21:40.217Z,996.38
2022-09-03T06:22:40.182Z,996.42
2022-09-03T06:23:40.992Z,996.38
2022-09-03T06:24:41.169Z,996.39
2022-09-03T06:25:40.156Z,996.37
2022-09-03T06:26:40.178Z,996.42
2022-09-03T06:27:40.140Z,996.40
2022-09-03T06:28:40.135Z,996.31
2022-09-03T06:29:40.130Z,996.39
2022-09-03T06:30:40.127Z,996.40
2022-09-03T06:31:40.233Z,996.39
2022-09-03T06:32:40.103Z,996.29
2022-09-03T06:33:40.115Z,996.36
2022-09-03T06:34:40.102Z,996.36
2022-09-03T06:35:42.744Z,996.37
2022-09-03T06:36:40.132Z,996.37
2022-09-03T06:37:40.063Z,996.38
2022-09-03T06:38:40.046Z,996.38
2022-09-03T06:39:40.104Z,996.38
2022-09-03T06:40:40.044Z,996.36
2022-09-03T06:41:40.077Z,996.33
2022-09-03T06:42:40.020Z,996.30
2022-09-03T06:43:40.014Z,996.27
2022-09-03T06:44:39.993Z,996.30
2022-09-03T06:45:40.053Z,996.32
2022-09-03T06:46:40.009Z,996.38
2022-09-03T06:47:39.974Z,996.33
2022-09-03T06:48:39.968Z,996.37
2022-09-03T06:49:39.963Z,996.37
2022-09-03T06:50:39.954Z,996.35
2022-09-03T06:51:39.990Z,996.37
2022-09-03T06:52:39.943Z,996.31
2022-09-03T06:53:39.932Z,996.35
2022-09-03T06:54:39.922Z,996.40
2022-09-03T06:55:39.918Z,996.39
2022-09-03T06:56:40.926Z,996.29
2022-09-03T06:57:40.922Z,996.35
2022-09-03T06:58:39.892Z,996.40
2022-09-03T06:59:39.879Z,996.41
2022-09-03T07:00:39.941Z,996.38
2022-09-03T07:01:40.005Z,996.34
2022-09-03T07:02:44.234Z,996.35
2022-09-03T07:03:41.849Z,996.35
2022-09-03T07:04:39.846Z,996.41
2022-09-03T07:05:39.836Z,996.40
2022-09-03T07:06:39.856Z,996.31
2022-09-03T07:07:39.814Z,996.31
2022-09-03T07:08:39.801Z,996.30
2022-09-03T07:09:39.801Z,996.22
2022-09-03T07:10:39.793Z,996.23
2022-09-03T07:11:39.817Z,996.26
2022-09-03T07:12:39.775Z,996.27
2022-09-03T07:13:39.765Z,996.23
2022-09-03T07:14:39.779Z,996.23
2022-09-03T07:15:39.754Z,996.21
2022-09-03T07:16:39.844Z,996.28
2022-09-03T07:17:39.745Z,996.27
2022-09-03T07:18:39.732Z,996.23
2022-09-03T07:19:39.721Z,996.24
2022-09-03T07:20:39.712Z,996.18
2022-09-03T07:21:39.730Z,996.08
2022-09-03T07:22:39.704Z,996.16
2022-09-03T07:23:39.695Z,996.14
2022-09-03T07:24:39.689Z,996.13
2022-09-03T07:25:39.681Z,996.13
2022-09-03T07:26:39.709Z,996.08
2022-09-03T07:27:39.674Z,996.12
2022-09-03T07:28:39.655Z,996.05
2022-09-03T07:29:39.649Z,996.06
2022-09-03T07:30:39.642Z,996.03
2022-09-03T07:31:39.728Z,995.99
2022-09-03T07:32:39.640Z,996.04
2022-09-03T07:33:39.621Z,995.98
2022-09-03T07:34:39.617Z,996.07
2022-09-03T07:35:39.609Z,996.00
2022-09-03T07:36:39.646Z,996.06
2022-09-03T07:37:39.597Z,995.98
2022-09-03T07:38:39.586Z,996.05
2022-09-03T07:39:39.625Z,996.02
2022-09-03T07:40:39.576Z,996.00
2022-09-03T07:41:39.594Z,996.05
2022-09-03T07:42:39.565Z,996.02
2022-09-03T07:43:39.557Z,995.98
2022-09-03T07:44:39.551Z,995.96
2022-09-03T07:45:39.537Z,995.97
2022-09-03T07:46:39.724Z,996.01
2022-09-03T07:47:39.522Z,995.97
2022-09-03T07:48:39.515Z,996.01
2022-09-03T07:49:39.502Z,995.91
2022-09-03T07:50:39.509Z,995.99
2022-09-03T07:51:39.520Z,995.91
2022-09-03T07:52:39.486Z,995.92
2022-09-03T07:53:39.489Z,995.95
2022-09-03T07:54:39.468Z,995.94
2022-09-03T07:55:39.460Z,995.94
2022-09-03T07:56:39.477Z,995.89
2022-09-03T07:57:39.448Z,995.88
2022-09-03T07:58:39.433Z,995.90
2022-09-03T07:59:39.427Z,995.88
2022-09-03T08:00:39.453Z,995.95
2022-09-03T08:01:41.501Z,995.89
2022-09-03T08:02:42.998Z,995.88
2022-09-03T08:03:40.480Z,995.85
2022-09-03T08:04:39.393Z,995.86
2022-09-03T08:05:39.385Z,995.92
2022-09-03T08:06:39.416Z,995.85
2022-09-03T08:07:39.379Z,995.87
2022-09-03T08:08:39.373Z,995.78
2022-09-03T08:09:39.361Z,995.83
2022-09-03T08:10:39.351Z,995.82
2022-09-03T08:11:39.373Z,995.82
2022-09-03T08:12:39.338Z,995.80
2022-09-03T08:13:39.332Z,995.78
2022-09-03T08:14:39.315Z,995.77
2022-09-03T08:15:40.345Z,995.75
2022-09-03T08:16:39.704Z,995.74
2022-09-03T08:17:39.305Z,995.66
2022-09-03T08:18:39.301Z,995.75
2022-09-03T08:19:39.303Z,995.74
2022-09-03T08:20:39.276Z,995.68
2022-09-03T08:21:40.325Z,995.75
2022-09-03T08:22:39.279Z,995.71
2022-09-03T08:23:39.275Z,995.76
2022-09-03T08:24:39.258Z,995.65
2022-09-03T08:25:39.244Z,995.71
2022-09-03T08:26:39.286Z,995.69
2022-09-03T08:27:39.230Z,995.64
2022-09-03T08:28:39.232Z,995.62
2022-09-03T08:29:39.217Z,995.59
2022-09-03T08:30:39.209Z,995.53
2022-09-03T08:31:39.315Z,995.56
2022-09-03T08:32:39.199Z,995.62
2022-09-03T08:33:39.190Z,995.56
2022-09-03T08:34:39.190Z,995.51
2022-09-03T08:35:39.188Z,995.50
2022-09-03T08:36:39.197Z,995.52
2022-09-03T08:37:39.171Z,995.52
2022-09-03T08:38:39.152Z,995.49
2022-09-03T08:39:39.246Z,995.49
2022-09-03T08:40:39.168Z,995.50
2022-09-03T08:41:39.163Z,995.54
2022-09-03T08:42:39.126Z,995.56
2022-09-03T08:43:39.122Z,995.55
2022-09-03T08:44:39.117Z,995.46
2022-09-03T08:45:39.133Z,995.47
2022-09-03T08:46:39.148Z,995.51
2022-09-03T08:47:39.097Z,995.49
2022-09-03T08:48:39.094Z,995.50
2022-09-03T08:49:39.078Z,995.44
2022-09-03T08:50:39.069Z,995.47
2022-09-03T08:51:39.095Z,995.45
2022-09-03T08:52:39.064Z,995.43
2022-09-03T08:53:39.054Z,995.53
2022-09-03T08:54:39.034Z,995.47
2022-09-03T08:55:39.030Z,995.48
2022-09-03T08:56:39.055Z,995.51
2022-09-03T08:57:39.015Z,995.50
2022-09-03T08:58:39.012Z,995.55
2022-09-03T08:59:39.008Z,995.45
2022-09-03T09:00:38.992Z,995.53
2022-09-03T09:01:39.100Z,995.45
2022-09-03T09:02:39.095Z,995.51
2022-09-03T09:03:38.973Z,995.48
2022-09-03T09:04:38.956Z,995.49
2022-09-03T09:05:38.967Z,995.50
2022-09-03T09:06:38.978Z,995.45
2022-09-03T09:07:38.942Z,995.44
2022-09-03T09:08:38.930Z,995.37
2022-09-03T09:09:38.930Z,995.37
2022-09-03T09:10:38.918Z,995.46
2022-09-03T09:11:38.934Z,995.38
2022-09-03T09:12:45.587Z,995.39
2022-09-03T09:13:40.897Z,995.34
2022-09-03T09:14:39.491Z,995.36
2022-09-03T09:15:38.906Z,995.36
2022-09-03T09:16:38.903Z,995.32
2022-09-03T09:17:38.868Z,995.29
2022-09-03T09:18:38.857Z,995.38
2022-09-03T09:19:38.848Z,995.35
2022-09-03T09:20:38.833Z,995.39
2022-09-03T09:21:38.864Z,995.40
2022-09-03T09:22:38.822Z,995.35
2022-09-03T09:23:38.817Z,995.28
2022-09-03T09:24:38.793Z,995.35
2022-09-03T09:25:39.799Z,995.29
2022-09-03T09:26:38.829Z,995.35
2022-09-03T09:27:38.787Z,995.30
2022-09-03T09:28:38.777Z,995.24
2022-09-03T09:29:38.772Z,995.29
2022-09-03T09:30:38.773Z,995.27
2022-09-03T09:31:38.836Z,995.26
2022-09-03T09:32:38.754Z,995.26
2022-09-03T09:33:38.737Z,995.33
2022-09-03T09:34:38.738Z,995.23
2022-09-03T09:35:38.752Z,995.27
2022-09-03T09:36:38.716Z,995.28
2022-09-03T09:37:38.714Z,995.26
2022-09-03T09:38:38.703Z,995.24
2022-09-03T09:39:38.739Z,995.21
2022-09-03T09:40:41.437Z,995.28
2022-09-03T09:41:40.669Z,995.32
2022-09-03T09:42:38.678Z,995.25
2022-09-03T09:43:38.661Z,995.25
2022-09-03T09:44:38.666Z,995.21
2022-09-03T09:45:38.672Z,995.29
2022-09-03T09:46:38.745Z,995.32
2022-09-03T09:47:38.628Z,995.27
2022-09-03T09:48:38.618Z,995.25
2022-09-03T09:49:38.613Z,995.22
2022-09-03T09:50:38.625Z,995.24
2022-09-03T09:51:38.600Z,995.22
2022-09-03T09:52:38.581Z,995.22
2022-09-03T09:53:38.590Z,995.19
2022-09-03T09:54:38.571Z,995.19
2022-09-03T09:55:38.606Z,995.20
2022-09-03T09:56:38.561Z,995.19
2022-09-03T09:57:38.547Z,995.21
2022-09-03T09:58:38.541Z,995.21
2022-09-03T09:59:38.532Z,995.11
2022-09-03T10:00:38.562Z,995.18
2022-09-03T10:01:38.550Z,995.20
2022-09-03T10:02:38.545Z,995.15
2022-09-03T10:03:38.497Z,995.13
2022-09-03T10:04:38.484Z,995.13
2022-09-03T10:05:38.510Z,995.04
2022-09-03T10:06:38.483Z,995.10
2022-09-03T10:07:38.471Z,995.11
2022-09-03T10:08:38.463Z,995.11
2022-09-03T10:09:38.452Z,995.11
2022-09-03T10:10:38.454Z,995.07
2022-09-03T10:11:38.463Z,995.06
2022-09-03T10:12:38.478Z,995.09
2022-09-03T10:13:38.424Z,995.05
2022-09-03T10:14:38.422Z,995.08
2022-09-03T10:15:38.463Z,995.05
2022-09-03T10:16:38.403Z,995.04
2022-09-03T10:17:38.402Z,995.02
2022-09-03T10:18:38.397Z,995.01
2022-09-03T10:19:38.393Z,994.95
2022-09-03T10:20:38.409Z,995.07
2022-09-03T10:21:38.371Z,995.02
2022-09-03T10:22:38.368Z,995.01
2022-09-03T10:23:39.350Z,995.03
2022-09-03T10:24:38.347Z,995.08
2022-09-03T10:25:38.372Z,995.06
2022-09-03T10:26:38.336Z,995.04
2022-09-03T10:27:38.322Z,995.08
2022-09-03T10:28:38.327Z,995.06
2022-09-03T10:29:38.315Z,995.06
2022-09-03T10:30:38.359Z,995.03
2022-09-03T10:31:38.330Z,995.06
2022-09-03T10:32:39.776Z,994.99
2022-09-03T10:33:38.289Z,995.01
2022-09-03T10:34:38.278Z,995.03
2022-09-03T10:35:38.271Z,995.06
2022-09-03T10:36:38.290Z,995.02
2022-09-03T10:37:38.269Z,994.97
2022-09-03T10:38:38.265Z,994.90
2022-09-03T10:39:43.122Z,994.97
2022-09-03T10:40:39.238Z,994.91
2022-09-03T10:41:38.265Z,994.94
2022-09-03T10:42:38.228Z,994.92
2022-09-03T10:43:38.216Z,994.93
2022-09-03T10:44:38.212Z,994.93
2022-09-03T10:45:38.693Z,994.89
2022-09-03T10:46:38.278Z,994.88
2022-09-03T10:47:38.182Z,994.85
2022-09-03T10:48:38.173Z,994.83
2022-09-03T10:49:38.170Z,994.87
2022-09-03T10:50:38.212Z,994.87
2022-09-03T10:51:38.163Z,994.80
2022-09-03T10:52:38.146Z,994.74
2022-09-03T10:53:38.175Z,994.79
2022-09-03T10:54:38.138Z,994.75
2022-09-03T10:55:38.158Z,994.73
2022-09-03T10:56:38.137Z,994.76
2022-09-03T10:57:38.118Z,994.82
2022-09-03T10:58:38.114Z,994.77
2022-09-03T10:59:38.100Z,994.73
2022-09-03T11:00:38.116Z,994.84
2022-09-03T11:01:38.156Z,994.81
2022-09-03T11:02:38.134Z,994.83
2022-09-03T11:03:38.068Z,994.83
2022-09-03T11:04:38.114Z,994.73
2022-09-03T11:05:38.066Z,994.70
2022-09-03T11:06:38.075Z,994.75
2022-09-03T11:07:38.041Z,994.72
2022-09-03T11:08:38.035Z,994.73
2022-09-03T11:09:38.020Z,994.70
2022-09-03T11:10:38.027Z,994.63
2022-09-03T11:11:38.038Z,994.55
2022-09-03T11:12:38.009Z,994.62
2022-09-03T11:13:37.991Z,994.64
2022-09-03T11:14:37.988Z,994.62
2022-09-03T11:15:38.010Z,994.52
2022-09-03T11:16:38.005Z,994.58
2022-09-03T11:17:37.965Z,994.62
2022-09-03T11:18:37.956Z,994.55
2022-09-03T11:19:37.953Z,994.53
2022-09-03T11:20:37.944Z,994.46
2022-09-03T11:21:38.039Z,994.52
2022-09-03T11:22:37.944Z,994.54
2022-09-03T11:23:37.925Z,994.51
2022-09-03T11:24:37.924Z,994.51
2022-09-03T11:25:37.952Z,994.54
2022-09-03T11:26:37.941Z,994.50
2022-09-03T11:27:37.903Z,994.42
2022-09-03T11:28:37.903Z,994.38
2022-09-03T11:29:37.890Z,994.36
2022-09-03T11:30:37.886Z,994.36
2022-09-03T11:31:37.900Z,994.32
2022-09-03T11:32:37.858Z,994.39
2022-09-03T11:33:37.859Z,994.28
2022-09-03T11:34:37.849Z,994.18
2022-09-03T11:35:37.843Z,994.33
2022-09-03T11:36:37.876Z,994.37
2022-09-03T11:37:37.841Z,994.45
2022-09-03T11:38:37.904Z,994.42
2022-09-03T11:39:37.934Z,994.43
2022-09-03T11:40:37.818Z,994.42
2022-09-03T11:41:37.992Z,994.39
2022-09-03T11:42:37.788Z,994.42
2022-09-03T11:43:37.785Z,994.40
2022-09-03T11:44:37.789Z,994.39
2022-09-03T11:45:38.868Z,994.31
2022-09-03T11:46:37.851Z,994.45
2022-09-03T11:47:37.750Z,994.45
2022-09-03T11:48:37.743Z,994.35
2022-09-03T11:49:37.731Z,994.39
2022-09-03T11:50:37.719Z,994.34
2022-09-03T11:51:37.743Z,994.40
2022-09-03T11:52:37.717Z,994.36
2022-09-03T11:53:37.706Z,994.41
2022-09-03T11:54:37.708Z,994.38
2022-09-03T11:55:43.260Z,994.38
2022-09-03T11:56:39.711Z,994.34
2022-09-03T11:57:37.676Z,994.37
2022-09-03T11:58:37.673Z,994.33
2022-09-03T11:59:37.653Z,994.40
2022-09-03T12:00:37.654Z,994.37
2022-09-03T12:01:37.671Z,994.35
2022-09-03T12:02:37.680Z,994.34
2022-09-03T12:03:37.621Z,994.40
2022-09-03T12:04:37.702Z,994.36
2022-09-03T12:05:37.610Z,994.26
2022-09-03T12:06:37.635Z,994.33
2022-09-03T12:07:37.603Z,994.26
2022-09-03T12:08:37.592Z,994.30
2022-09-03T12:09:37.576Z,994.31
2022-09-03T12:10:37.573Z,994.25
2022-09-03T12:11:37.594Z,994.25
2022-09-03T12:12:37.558Z,994.26
2022-09-03T12:13:37.549Z,994.36
2022-09-03T12:14:37.545Z,994.31
2022-09-03T12:15:37.599Z,994.32
2022-09-03T12:16:37.581Z,994.29
2022-09-03T12:17:37.515Z,994.25
2022-09-03T12:18:37.511Z,994.28
2022-09-03T12:19:37.510Z,994.29
2022-09-03T12:20:38.498Z,994.27
2022-09-03T12:21:37.515Z,994.36
2022-09-03T12:22:37.481Z,994.35
2022-09-03T12:23:37.483Z,994.33
2022-09-03T12:24:38.423Z,994.40
2022-09-03T12:25:38.464Z,994.38
2022-09-03T12:26:37.469Z,994.43
2022-09-03T12:27:37.443Z,994.49
2022-09-03T12:28:37.428Z,994.45